McLean, IL (61754)

10:16 PM CST on February 09, 2016 (GMT -0600)
NE 6th Street | | Change Station
CLOSE
Current Station
Personal Weather Station
Location: Atlanta, IL
Elevation: 719 ft
Nearby Weather Stations

Elev 719 ft 40.27 °N, 89.23 °W | Updated 3 seconds ago

Overcast
Overcast
14.2 °F
Feels Like 5 °F
N
5.8
Wind Variable Wind from WNW
Gusts 10.3 mph

Today
High -- | Low -- °F
--% Chance of Precip.
Yesterday
High -- | Low -- °F
Precip. -- in
Pressure 30.07 in
Visibility 3.0 miles
Clouds Scattered Clouds 1200 ft
Mostly Cloudy 2700 ft
Overcast 3900 ft
Windchill 5 °F
Dew Point 7 °F
Humidity 73%
Rainfall in
Snow Depth Not available.
6:57 AM 5:24 PM
Waxing Crescent, 3% visible
METAR KAAA 100355Z AUTO 30007G15KT 280V340 3SM -SN SCT012 BKN027 OVC039 M09/M12 A3007 RMK AO2 T10951120
Pressure 30.07 in
Visibility 3.0 miles
Clouds Scattered Clouds 1200 ft
Mostly Cloudy 2700 ft
Overcast 3900 ft
Windchill 5 °F
Dew Point 7 °F
Humidity 73%
Rainfall in
Snow Depth Not available.
6:57 AM 5:24 PM
Waxing Crescent, 3% visible
METAR KAAA 100355Z AUTO 30007G15KT 280V340 3SM -SN SCT012 BKN027 OVC039 M09/M12 A3007 RMK AO2 T10951120

10-Day Weather Forecast

Almanac

Astronomy

Feb. 09, 2016 Rise Set
Actual Time
Civil Twilight
Nautical Twilight
Astronomical Twilight
Moon
Length of Visible Light
Length of Day
Tomorrow will be .
, % of the Moon is Illuminated

Today's Extremes

State Highs State Lows

Community

WunderPhotos

Upload Photos

1,891,796 photos uploaded!

WunderBlog® & News

Nearby

Air Quality

  Air Quality AQ Index Pollutant
Not available.

Snow Depth

Station Depth Elevation

Earthquake Activity

City Distance Mag. Time & Date
Minimum magnitude displayed is 2.5.

Coastal Water Temperatures

Place Temperature

Stations

Nearby Weather Stations

Station Location Temp. Windchill Dew Point Humidity Wind Precip. Elev Updated Type
                   

Watches & Warnings

There are currently no watches in effect.